sensor_id;sensor_type;location;lat;lon;timestamp;pressure;altitude;pressure_sealevel;temperature;humidity
47104;BME280;32853;52.164;5.400;2023-04-22T00:01:58;100750.41;;;12.45;100.00
47104;BME280;32853;52.164;5.400;2023-04-22T00:04:23;100798.09;;;12.70;100.00
47104;BME280;32853;52.164;5.400;2023-04-22T00:07:09;100790.72;;;12.78;100.00
47104;BME280;32853;52.164;5.400;2023-04-22T00:09:36;100780.66;;;12.69;100.00
47104;BME280;32853;52.164;5.400;2023-04-22T00:12:02;100787.84;;;12.66;100.00
47104;BME280;32853;52.164;5.400;2023-04-22T00:14:34;100782.28;;;12.72;100.00
47104;BME280;32853;52.164;5.400;2023-04-22T00:17:26;100774.56;;;12.69;100.00
47104;BME280;32853;52.164;5.400;2023-04-22T00:19:53;100770.09;;;12.54;100.00
47104;BME280;32853;52.164;5.400;2023-04-22T00:22:20;100722.50;;;12.25;100.00
47104;BME280;32853;52.164;5.400;2023-04-22T00:24:47;100748.97;;;12.38;100.00
47104;BME280;32853;52.164;5.400;2023-04-22T00:27:16;100779.16;;;12.46;100.00
47104;BME280;32853;52.164;5.400;2023-04-22T00:29:41;100773.75;;;12.32;100.00
47104;BME280;32853;52.164;5.400;2023-04-22T00:32:07;100765.72;;;12.35;100.00
47104;BME280;32853;52.164;5.400;2023-04-22T00:34:32;100752.69;;;12.34;100.00
47104;BME280;32853;52.164;5.400;2023-04-22T00:36:57;100745.63;;;12.17;100.00
47104;BME280;32853;52.164;5.400;2023-04-22T00:39:23;100763.88;;;12.18;100.00
47104;BME280;32853;52.164;5.400;2023-04-22T00:41:48;100760.22;;;12.23;100.00
47104;BME280;32853;52.164;5.400;2023-04-22T00:44:14;100771.50;;;12.06;100.00
47104;BME280;32853;52.164;5.400;2023-04-22T00:46:39;100777.16;;;12.15;100.00
47104;BME280;32853;52.164;5.400;2023-04-22T00:49:07;100736.03;;;11.80;100.00
47104;BME280;32853;52.164;5.400;2023-04-22T00:51:40;100771.06;;;12.15;100.00
47104;BME280;32853;52.164;5.400;2023-04-22T00:54:16;100782.56;;;12.12;100.00
47104;BME280;32853;52.164;5.400;2023-04-22T00:56:48;100787.72;;;12.14;100.00
47104;BME280;32853;52.164;5.400;2023-04-22T00:59:22;100792.19;;;12.12;100.00
47104;BME280;32853;52.164;5.400;2023-04-22T01:01:52;100755.06;;;11.83;100.00
47104;BME280;32853;52.164;5.400;2023-04-22T01:04:18;100783.91;;;12.02;100.00
47104;BME280;32853;52.164;5.400;2023-04-22T01:06:45;100784.63;;;11.87;100.00
47104;BME280;32853;52.164;5.400;2023-04-22T01:09:12;100737.91;;;11.57;100.00
47104;BME280;32853;52.164;5.400;2023-04-22T01:11:37;100786.50;;;11.83;100.00
47104;BME280;32853;52.164;5.400;2023-04-22T01:14:03;100782.78;;;11.89;100.00
47104;BME280;32853;52.164;5.400;2023-04-22T01:16:29;100776.50;;;11.73;100.00
47104;BME280;32853;52.164;5.400;2023-04-22T01:18:58;100762.09;;;11.62;100.00
47104;BME280;32853;52.164;5.400;2023-04-22T01:21:25;100795.97;;;11.67;100.00
47104;BME280;32853;52.164;5.400;2023-04-22T01:23:51;100789.38;;;11.58;100.00
47104;BME280;32853;52.164;5.400;2023-04-22T01:26:20;100776.75;;;11.48;100.00
47104;BME280;32853;52.164;5.400;2023-04-22T01:28:45;100772.28;;;11.50;100.00
47104;BME280;32853;52.164;5.400;2023-04-22T01:31:11;100779.09;;;11.54;100.00
47104;BME280;32853;52.164;5.400;2023-04-22T01:33:38;100789.44;;;11.57;100.00
47104;BME280;32853;52.164;5.400;2023-04-22T01:36:03;100785.53;;;11.47;100.00
47104;BME280;32853;52.164;5.400;2023-04-22T01:38:29;100769.16;;;11.42;100.00
47104;BME280;32853;52.164;5.400;2023-04-22T01:41:07;100794.38;;;11.63;100.00
47104;BME280;32853;52.164;5.400;2023-04-22T01:43:33;100796.38;;;11.58;100.00
47104;BME280;32853;52.164;5.400;2023-04-22T01:46:07;100715.00;;;11.23;100.00
47104;BME280;32853;52.164;5.400;2023-04-22T01:48:33;100783.28;;;11.58;100.00
47104;BME280;32853;52.164;5.400;2023-04-22T01:51:00;100713.72;;;11.13;100.00
47104;BME280;32853;52.164;5.400;2023-04-22T01:53:35;100731.56;;;11.24;100.00
47104;BME280;32853;52.164;5.400;2023-04-22T01:56:00;100757.34;;;11.33;100.00
47104;BME280;32853;52.164;5.400;2023-04-22T01:58:39;100784.34;;;11.54;100.00
47104;BME280;32853;52.164;5.400;2023-04-22T02:01:16;100666.47;;;10.77;100.00
47104;BME280;32853;52.164;5.400;2023-04-22T02:03:51;100786.38;;;11.47;100.00
47104;BME280;32853;52.164;5.400;2023-04-22T02:06:27;100744.44;;;11.28;100.00
47104;BME280;32853;52.164;5.400;2023-04-22T02:08:53;100784.59;;;11.48;100.00
47104;BME280;32853;52.164;5.400;2023-04-22T02:11:18;100759.66;;;11.39;100.00
47104;BME280;32853;52.164;5.400;2023-04-22T02:13:44;100763.22;;;11.38;100.00
47104;BME280;32853;52.164;5.400;2023-04-22T02:16:11;100739.19;;;11.28;100.00
47104;BME280;32853;52.164;5.400;2023-04-22T02:18:38;100757.06;;;11.39;100.00
47104;BME280;32853;52.164;5.400;2023-04-22T02:21:04;100765.66;;;11.22;100.00
47104;BME280;32853;52.164;5.400;2023-04-22T02:23:29;100774.94;;;11.29;100.00
47104;BME280;32853;52.164;5.400;2023-04-22T02:25:55;100791.25;;;11.36;100.00
47104;BME280;32853;52.164;5.400;2023-04-22T02:28:21;100771.91;;;11.39;100.00
47104;BME280;32853;52.164;5.400;2023-04-22T02:30:46;100756.97;;;11.22;100.00
47104;BME280;32853;52.164;5.400;2023-04-22T02:33:12;100748.97;;;11.25;100.00
47104;BME280;32853;52.164;5.400;2023-04-22T02:35:37;100763.53;;;11.30;100.00
47104;BME280;32853;52.164;5.400;2023-04-22T02:38:02;100748.25;;;11.21;100.00
47104;BME280;32853;52.164;5.400;2023-04-22T02:40:28;100764.28;;;11.34;100.00
47104;BME280;32853;52.164;5.400;2023-04-22T02:42:53;100752.28;;;11.28;100.00
47104;BME280;32853;52.164;5.400;2023-04-22T02:45:18;100752.44;;;11.25;100.00
47104;BME280;32853;52.164;5.400;2023-04-22T02:47:48;100715.72;;;11.06;100.00
47104;BME280;32853;52.164;5.400;2023-04-22T02:50:13;100764.69;;;11.25;100.00
47104;BME280;32853;52.164;5.400;2023-04-22T02:52:42;100677.69;;;10.79;100.00
47104;BME280;32853;52.164;5.400;2023-04-22T02:55:09;100746.69;;;11.17;100.00
47104;BME280;32853;52.164;5.400;2023-04-22T02:57:34;100710.50;;;10.86;100.00
47104;BME280;32853;52.164;5.400;2023-04-22T03:00:08;100746.56;;;11.20;100.00
47104;BME280;32853;52.164;5.400;2023-04-22T03:02:36;100699.63;;;10.76;100.00
47104;BME280;32853;52.164;5.400;2023-04-22T03:05:03;100747.06;;;11.08;100.00
47104;BME280;32853;52.164;5.400;2023-04-22T03:07:30;100744.44;;;11.08;100.00
47104;BME280;32853;52.164;5.400;2023-04-22T03:09:55;100742.97;;;11.02;100.00
47104;BME280;32853;52.164;5.400;2023-04-22T03:12:23;100685.81;;;10.73;100.00
47104;BME280;32853;52.164;5.400;2023-04-22T03:14:54;100728.25;;;11.00;100.00
47104;BME280;32853;52.164;5.400;2023-04-22T03:17:25;100738.25;;;10.90;100.00
47104;BME280;32853;52.164;5.400;2023-04-22T03:19:58;100729.25;;;10.97;100.00
47104;BME280;32853;52.164;5.400;2023-04-22T03:22:27;100721.19;;;10.82;100.00
47104;BME280;32853;52.164;5.400;2023-04-22T03:24:54;100729.03;;;10.82;100.00
47104;BME280;32853;52.164;5.400;2023-04-22T03:27:23;100735.56;;;10.92;100.00
47104;BME280;32853;52.164;5.400;2023-04-22T03:29:56;100722.75;;;10.86;100.00
47104;BME280;32853;52.164;5.400;2023-04-22T03:32:26;100735.66;;;10.90;100.00
47104;BME280;32853;52.164;5.400;2023-04-22T03:34:51;100682.69;;;10.65;100.00
47104;BME280;32853;52.164;5.400;2023-04-22T03:37:16;100695.56;;;10.69;100.00
47104;BME280;32853;52.164;5.400;2023-04-22T03:39:47;100724.97;;;10.95;100.00
47104;BME280;32853;52.164;5.400;2023-04-22T03:42:20;100718.56;;;11.02;100.00
47104;BME280;32853;52.164;5.400;2023-04-22T03:44:46;100666.16;;;10.64;100.00
47104;BME280;32853;52.164;5.400;2023-04-22T03:47:12;100712.81;;;10.94;100.00
47104;BME280;32853;52.164;5.400;2023-04-22T03:49:38;100696.78;;;10.81;100.00
47104;BME280;32853;52.164;5.400;2023-04-22T03:52:26;100710.13;;;10.95;100.00
47104;BME280;32853;52.164;5.400;2023-04-22T03:55:02;100704.19;;;10.92;100.00
47104;BME280;32853;52.164;5.400;2023-04-22T03:57:28;100704.88;;;10.95;100.00
47104;BME280;32853;52.164;5.400;2023-04-22T03:59:53;100686.19;;;10.84;100.00
47104;BME280;32853;52.164;5.400;2023-04-22T04:02:21;100659.84;;;10.68;100.00
47104;BME280;32853;52.164;5.400;2023-04-22T04:04:47;100693.19;;;10.84;100.00
47104;BME280;32853;52.164;5.400;2023-04-22T04:07:19;100700.72;;;10.91;100.00
47104;BME280;32853;52.164;5.400;2023-04-22T04:09:44;100693.47;;;10.98;100.00
47104;BME280;32853;52.164;5.400;2023-04-22T04:12:20;100687.03;;;10.85;100.00
47104;BME280;32853;52.164;5.400;2023-04-22T04:14:47;100677.00;;;10.75;100.00
47104;BME280;32853;52.164;5.400;2023-04-22T04:17:28;100697.03;;;10.95;100.00
47104;BME280;32853;52.164;5.400;2023-04-22T04:20:02;100669.53;;;10.87;100.00
47104;BME280;32853;52.164;5.400;2023-04-22T04:22:39;100645.84;;;10.69;100.00
47104;BME280;32853;52.164;5.400;2023-04-22T04:25:05;100671.16;;;10.89;100.00
47104;BME280;32853;52.164;5.400;2023-04-22T04:27:46;100678.72;;;10.95;100.00
47104;BME280;32853;52.164;5.400;2023-04-22T04:30:11;100668.53;;;10.89;100.00
47104;BME280;32853;52.164;5.400;2023-04-22T04:32:38;100682.00;;;11.00;100.00
47104;BME280;32853;52.164;5.400;2023-04-22T04:35:04;100630.38;;;10.65;100.00
47104;BME280;32853;52.164;5.400;2023-04-22T04:37:30;100677.63;;;11.01;100.00
47104;BME280;32853;52.164;5.400;2023-04-22T04:39:55;100685.72;;;10.95;100.00
47104;BME280;32853;52.164;5.400;2023-04-22T04:42:23;100684.09;;;10.92;100.00
47104;BME280;32853;52.164;5.400;2023-04-22T04:44:56;100658.03;;;10.70;100.00
47104;BME280;32853;52.164;5.400;2023-04-22T04:47:22;100682.78;;;10.82;100.00
47104;BME280;32853;52.164;5.400;2023-04-22T04:49:49;100609.13;;;10.52;100.00
47104;BME280;32853;52.164;5.400;2023-04-22T04:52:17;100655.56;;;10.86;100.00
47104;BME280;32853;52.164;5.400;2023-04-22T04:54:42;100580.63;;;10.46;100.00
47104;BME280;32853;52.164;5.400;2023-04-22T04:57:08;100665.44;;;11.00;100.00
47104;BME280;32853;52.164;5.400;2023-04-22T04:59:34;100665.44;;;11.00;100.00
47104;BME280;32853;52.164;5.400;2023-04-22T05:01:59;100627.00;;;10.82;100.00
47104;BME280;32853;52.164;5.400;2023-04-22T05:04:24;100598.19;;;10.63;100.00
47104;BME280;32853;52.164;5.400;2023-04-22T05:06:50;100667.22;;;10.99;100.00
47104;BME280;32853;52.164;5.400;2023-04-22T05:09:15;100633.38;;;10.76;100.00
47104;BME280;32853;52.164;5.400;2023-04-22T05:11:41;100571.88;;;10.47;100.00
47104;BME280;32853;52.164;5.400;2023-04-22T05:14:07;100664.53;;;11.01;100.00
47104;BME280;32853;52.164;5.400;2023-04-22T05:16:32;100668.00;;;11.01;100.00
47104;BME280;32853;52.164;5.400;2023-04-22T05:18:58;100627.09;;;10.80;100.00
47104;BME280;32853;52.164;5.400;2023-04-22T05:21:23;100667.72;;;11.07;100.00
47104;BME280;32853;52.164;5.400;2023-04-22T05:23:48;100681.47;;;11.13;100.00
47104;BME280;32853;52.164;5.400;2023-04-22T05:26:15;100648.16;;;10.96;100.00
47104;BME280;32853;52.164;5.400;2023-04-22T05:28:40;100626.31;;;10.78;100.00
47104;BME280;32853;52.164;5.400;2023-04-22T05:31:06;100687.75;;;11.09;100.00
47104;BME280;32853;52.164;5.400;2023-04-22T05:33:57;100680.31;;;11.18;100.00
47104;BME280;32853;52.164;5.400;2023-04-22T05:36:22;100686.34;;;11.20;100.00
47104;BME280;32853;52.164;5.400;2023-04-22T05:39:03;100614.44;;;10.90;100.00
47104;BME280;32853;52.164;5.400;2023-04-22T05:41:34;100675.81;;;11.22;100.00
47104;BME280;32853;52.164;5.400;2023-04-22T05:44:23;100677.38;;;11.26;100.00
47104;BME280;32853;52.164;5.400;2023-04-22T05:46:48;100667.31;;;11.17;100.00
47104;BME280;32853;52.164;5.400;2023-04-22T05:49:14;100679.53;;;11.16;100.00
47104;BME280;32853;52.164;5.400;2023-04-22T05:51:49;100640.31;;;10.96;100.00
47104;BME280;32853;52.164;5.400;2023-04-22T05:54:14;100673.31;;;11.19;100.00
47104;BME280;32853;52.164;5.400;2023-04-22T05:56:39;100643.66;;;10.99;100.00
47104;BME280;32853;52.164;5.400;2023-04-22T05:59:05;100692.94;;;11.29;100.00
47104;BME280;32853;52.164;5.400;2023-04-22T06:01:30;100627.91;;;11.01;100.00
47104;BME280;32853;52.164;5.400;2023-04-22T06:03:56;100676.25;;;11.31;100.00
47104;BME280;32853;52.164;5.400;2023-04-22T06:06:21;100685.44;;;11.40;100.00
47104;BME280;32853;52.164;5.400;2023-04-22T06:08:55;100670.56;;;11.41;100.00
47104;BME280;32853;52.164;5.400;2023-04-22T06:11:20;100692.03;;;11.49;100.00
47104;BME280;32853;52.164;5.400;2023-04-22T06:13:49;100660.16;;;11.39;100.00
47104;BME280;32853;52.164;5.400;2023-04-22T06:16:14;100688.28;;;11.54;100.00
47104;BME280;32853;52.164;5.400;2023-04-22T06:18:46;100659.56;;;11.53;100.00
47104;BME280;32853;52.164;5.400;2023-04-22T06:21:12;100638.31;;;11.40;100.00
47104;BME280;32853;52.164;5.400;2023-04-22T06:23:42;100672.84;;;11.67;100.00
47104;BME280;32853;52.164;5.400;2023-04-22T06:26:07;100654.59;;;11.47;100.00
47104;BME280;32853;52.164;5.400;2023-04-22T06:28:33;100661.44;;;11.68;100.00
47104;BME280;32853;52.164;5.400;2023-04-22T06:30:58;100670.38;;;11.64;100.00
47104;BME280;32853;52.164;5.400;2023-04-22T06:33:25;100610.31;;;11.42;100.00
47104;BME280;32853;52.164;5.400;2023-04-22T06:35:58;100601.03;;;11.35;100.00
47104;BME280;32853;52.164;5.400;2023-04-22T06:38:23;100663.06;;;11.71;100.00
47104;BME280;32853;52.164;5.400;2023-04-22T06:40:54;100636.59;;;11.77;100.00
47104;BME280;32853;52.164;5.400;2023-04-22T06:43:22;100650.97;;;11.87;100.00
47104;BME280;32853;52.164;5.400;2023-04-22T06:46:12;100642.97;;;11.90;100.00
47104;BME280;32853;52.164;5.400;2023-04-22T06:48:39;100638.72;;;11.87;100.00
47104;BME280;32853;52.164;5.400;2023-04-22T06:51:04;100629.94;;;11.88;100.00
47104;BME280;32853;52.164;5.400;2023-04-22T06:53:35;100593.09;;;11.73;100.00
47104;BME280;32853;52.164;5.400;2023-04-22T06:56:01;100632.50;;;12.07;100.00
47104;BME280;32853;52.164;5.400;2023-04-22T06:58:26;100611.00;;;12.01;100.00
47104;BME280;32853;52.164;5.400;2023-04-22T07:00:52;100624.47;;;12.28;100.00
47104;BME280;32853;52.164;5.400;2023-04-22T07:03:17;100606.06;;;12.12;100.00
47104;BME280;32853;52.164;5.400;2023-04-22T07:05:42;100622.56;;;12.31;100.00
47104;BME280;32853;52.164;5.400;2023-04-22T07:08:08;100605.13;;;12.30;100.00
47104;BME280;32853;52.164;5.400;2023-04-22T07:10:36;100564.81;;;12.15;100.00
47104;BME280;32853;52.164;5.400;2023-04-22T07:13:01;100613.47;;;12.56;100.00
47104;BME280;32853;52.164;5.400;2023-04-22T07:15:29;100618.22;;;12.65;100.00
47104;BME280;32853;52.164;5.400;2023-04-22T07:17:54;100596.63;;;12.60;100.00
47104;BME280;32853;52.164;5.400;2023-04-22T07:20:20;100614.81;;;12.63;100.00
47104;BME280;32853;52.164;5.400;2023-04-22T07:22:49;100627.84;;;12.82;100.00
47104;BME280;32853;52.164;5.400;2023-04-22T07:25:22;100616.41;;;12.83;100.00
47104;BME280;32853;52.164;5.400;2023-04-22T07:27:48;100599.97;;;12.79;100.00
47104;BME280;32853;52.164;5.400;2023-04-22T07:30:13;100619.09;;;12.98;100.00
47104;BME280;32853;52.164;5.400;2023-04-22T07:32:39;100625.38;;;13.12;100.00
47104;BME280;32853;52.164;5.400;2023-04-22T07:35:04;100627.47;;;13.05;100.00
47104;BME280;32853;52.164;5.400;2023-04-22T07:37:34;100625.00;;;13.19;100.00
47104;BME280;32853;52.164;5.400;2023-04-22T07:40:02;100627.09;;;13.28;100.00
47104;BME280;32853;52.164;5.400;2023-04-22T07:42:27;100594.34;;;13.20;100.00
47104;BME280;32853;52.164;5.400;2023-04-22T07:45:10;100618.22;;;13.47;100.00
47104;BME280;32853;52.164;5.400;2023-04-22T07:47:36;100630.84;;;13.56;100.00
47104;BME280;32853;52.164;5.400;2023-04-22T07:50:07;100624.06;;;13.68;100.00
47104;BME280;32853;52.164;5.400;2023-04-22T07:52:33;100629.66;;;13.77;100.00
47104;BME280;32853;52.164;5.400;2023-04-22T07:54:59;100629.38;;;13.98;100.00
47104;BME280;32853;52.164;5.400;2023-04-22T07:57:26;100642.59;;;13.96;100.00
47104;BME280;32853;52.164;5.400;2023-04-22T07:59:53;100484.63;;;13.25;100.00
47104;BME280;32853;52.164;5.400;2023-04-22T08:02:25;100635.59;;;14.41;100.00
47104;BME280;32853;52.164;5.400;2023-04-22T08:04:52;100601.69;;;14.06;100.00
47104;BME280;32853;52.164;5.400;2023-04-22T08:07:17;100409.84;;;13.00;100.00
47104;BME280;32853;52.164;5.400;2023-04-22T08:09:45;100604.00;;;14.27;100.00
47104;BME280;32853;52.164;5.400;2023-04-22T08:12:10;100576.41;;;14.34;100.00
47104;BME280;32853;52.164;5.400;2023-04-22T08:14:43;100642.59;;;14.86;100.00
47104;BME280;32853;52.164;5.400;2023-04-22T08:17:14;100626.97;;;14.97;100.00
47104;BME280;32853;52.164;5.400;2023-04-22T08:20:00;100616.44;;;15.11;100.00
47104;BME280;32853;52.164;5.400;2023-04-22T08:22:26;100604.00;;;15.14;100.00
47104;BME280;32853;52.164;5.400;2023-04-22T08:24:51;100618.84;;;15.29;100.00
47104;BME280;32853;52.164;5.400;2023-04-22T08:27:17;100593.06;;;15.34;100.00
47104;BME280;32853;52.164;5.400;2023-04-22T08:29:43;100526.78;;;15.13;100.00
47104;BME280;32853;52.164;5.400;2023-04-22T08:32:09;100602.31;;;15.68;100.00
47104;BME280;32853;52.164;5.400;2023-04-22T08:34:35;100572.00;;;15.61;100.00
47104;BME280;32853;52.164;5.400;2023-04-22T08:37:01;100555.25;;;15.62;100.00
47104;BME280;32853;52.164;5.400;2023-04-22T08:39:26;100569.06;;;15.92;100.00
47104;BME280;32853;52.164;5.400;2023-04-22T08:41:52;100441.28;;;15.31;100.00
47104;BME280;32853;52.164;5.400;2023-04-22T08:44:20;100574.44;;;16.31;100.00
47104;BME280;32853;52.164;5.400;2023-04-22T08:46:47;100572.94;;;16.39;100.00
47104;BME280;32853;52.164;5.400;2023-04-22T08:49:19;100537.03;;;16.11;100.00
47104;BME280;32853;52.164;5.400;2023-04-22T08:51:47;100567.97;;;16.35;100.00
47104;BME280;32853;52.164;5.400;2023-04-22T08:54:13;100461.75;;;15.67;100.00
47104;BME280;32853;52.164;5.400;2023-04-22T08:56:44;100554.25;;;16.55;100.00
47104;BME280;32853;52.164;5.400;2023-04-22T08:59:10;100499.13;;;16.38;100.00
47104;BME280;32853;52.164;5.400;2023-04-22T09:01:38;100576.66;;;16.88;100.00
47104;BME280;32853;52.164;5.400;2023-04-22T09:04:04;100560.78;;;17.00;100.00
47104;BME280;32853;52.164;5.400;2023-04-22T09:06:31;100536.41;;;16.84;100.00
47104;BME280;32853;52.164;5.400;2023-04-22T09:08:58;100553.25;;;17.07;100.00
47104;BME280;32853;52.164;5.400;2023-04-22T09:11:37;100446.97;;;16.54;100.00
47104;BME280;32853;52.164;5.400;2023-04-22T09:14:03;100567.69;;;17.27;100.00
47104;BME280;32853;52.164;5.400;2023-04-22T09:16:39;100558.66;;;17.42;100.00
47104;BME280;32853;52.164;5.400;2023-04-22T09:19:26;100574.91;;;17.49;100.00
47104;BME280;32853;52.164;5.400;2023-04-22T09:21:52;100562.69;;;17.59;100.00
47104;BME280;32853;52.164;5.400;2023-04-22T09:24:17;100449.84;;;17.00;100.00
47104;BME280;32853;52.164;5.400;2023-04-22T09:26:45;100542.34;;;17.72;100.00
47104;BME280;32853;52.164;5.400;2023-04-22T09:29:14;100562.59;;;18.08;100.00
47104;BME280;32853;52.164;5.400;2023-04-22T09:31:42;100541.44;;;18.19;100.00
47104;BME280;32853;52.164;5.400;2023-04-22T09:34:26;100527.19;;;17.98;100.00
47104;BME280;32853;52.164;5.400;2023-04-22T09:36:52;100509.53;;;18.10;100.00
47104;BME280;32853;52.164;5.400;2023-04-22T09:39:18;100479.78;;;17.95;100.00
47104;BME280;32853;52.164;5.400;2023-04-22T09:41:43;100530.66;;;18.45;100.00
47104;BME280;32853;52.164;5.400;2023-04-22T09:44:13;100531.13;;;18.50;100.00
47104;BME280;32853;52.164;5.400;2023-04-22T09:46:41;100518.25;;;18.56;100.00
47104;BME280;32853;52.164;5.400;2023-04-22T09:49:07;100409.09;;;18.08;100.00
47104;BME280;32853;52.164;5.400;2023-04-22T09:51:32;100516.00;;;18.85;100.00
47104;BME280;32853;52.164;5.400;2023-04-22T09:54:03;100368.06;;;18.14;100.00
47104;BME280;32853;52.164;5.400;2023-04-22T09:56:45;100443.63;;;18.63;100.00
47104;BME280;32853;52.164;5.400;2023-04-22T09:59:23;100365.41;;;18.14;100.00
47104;BME280;32853;52.164;5.400;2023-04-22T10:01:51;100430.16;;;18.66;100.00
47104;BME280;32853;52.164;5.400;2023-04-22T10:04:18;100438.81;;;18.68;100.00
47104;BME280;32853;52.164;5.400;2023-04-22T10:06:50;100497.88;;;19.13;100.00
47104;BME280;32853;52.164;5.400;2023-04-22T10:09:21;100301.03;;;18.24;100.00
47104;BME280;32853;52.164;5.400;2023-04-22T10:11:47;100429.53;;;18.84;100.00
47104;BME280;32853;52.164;5.400;2023-04-22T10:14:13;100495.50;;;19.42;100.00
47104;BME280;32853;52.164;5.400;2023-04-22T10:16:42;100477.75;;;19.54;100.00
47104;BME280;32853;52.164;5.400;2023-04-22T10:19:10;100287.88;;;18.45;100.00
47104;BME280;32853;52.164;5.400;2023-04-22T10:21:39;100442.28;;;19.55;100.00
47104;BME280;32853;52.164;5.400;2023-04-22T10:24:05;100450.56;;;19.40;98.89
47104;BME280;32853;52.164;5.400;2023-04-22T10:26:51;100490.72;;;20.30;100.00
47104;BME280;32853;52.164;5.400;2023-04-22T10:29:19;100491.69;;;20.60;100.00
47104;BME280;32853;52.164;5.400;2023-04-22T10:34:35;100450.56;;;20.24;96.03
47104;BME280;32853;52.164;5.400;2023-04-22T10:37:11;100496.19;;;20.39;95.52
47104;BME280;32853;52.164;5.400;2023-04-22T10:39:38;100481.78;;;20.31;94.28
47104;BME280;32853;52.164;5.400;2023-04-22T10:42:11;100410.47;;;19.96;93.67
47104;BME280;32853;52.164;5.400;2023-04-22T10:44:53;100459.41;;;20.34;92.57
47104;BME280;32853;52.164;5.400;2023-04-22T10:47:34;100440.50;;;20.27;93.80
47104;BME280;32853;52.164;5.400;2023-04-22T10:52:37;100499.59;;;20.81;87.60
47104;BME280;32853;52.164;5.400;2023-04-22T10:55:03;100491.97;;;20.57;88.57
47104;BME280;32853;52.164;5.400;2023-04-22T10:57:35;100512.66;;;20.53;91.77
47104;BME280;32853;52.164;5.400;2023-04-22T11:00:24;100464.88;;;20.12;87.88
47104;BME280;32853;52.164;5.400;2023-04-22T11:02:52;100446.03;;;20.15;85.13
47104;BME280;32853;52.164;5.400;2023-04-22T11:05:21;100511.97;;;20.51;91.15
47104;BME280;32853;52.164;5.400;2023-04-22T11:07:52;100456.63;;;20.36;84.76
47104;BME280;32853;52.164;5.400;2023-04-22T11:10:38;100513.94;;;20.38;85.69
47104;BME280;32853;52.164;5.400;2023-04-22T11:13:20;100511.78;;;20.43;86.49
47104;BME280;32853;52.164;5.400;2023-04-22T11:15:47;100433.69;;;20.04;89.29
47104;BME280;32853;52.164;5.400;2023-04-22T11:18:20;100518.44;;;20.68;89.23
47104;BME280;32853;52.164;5.400;2023-04-22T11:20:47;100518.81;;;20.84;87.17
47104;BME280;32853;52.164;5.400;2023-04-22T11:23:27;100486.69;;;20.15;84.18
47104;BME280;32853;52.164;5.400;2023-04-22T11:26:04;100441.34;;;19.77;82.78
47104;BME280;32853;52.164;5.400;2023-04-22T11:28:32;100464.53;;;19.95;84.45
47104;BME280;32853;52.164;5.400;2023-04-22T11:31:07;100498.69;;;20.30;84.36
47104;BME280;32853;52.164;5.400;2023-04-22T11:33:36;100366.97;;;19.46;82.87
47104;BME280;32853;52.164;5.400;2023-04-22T11:36:03;100478.56;;;19.86;83.26
47104;BME280;32853;52.164;5.400;2023-04-22T11:38:29;100475.50;;;19.70;86.60
47104;BME280;32853;52.164;5.400;2023-04-22T11:40:55;100513.72;;;19.99;85.61
47104;BME280;32853;52.164;5.400;2023-04-22T11:43:22;100510.44;;;20.07;87.51
47104;BME280;32853;52.164;5.400;2023-04-22T11:45:48;100386.88;;;19.20;88.08
47104;BME280;32853;52.164;5.400;2023-04-22T11:48:14;100482.50;;;19.71;88.93
47104;BME280;32853;52.164;5.400;2023-04-22T11:50:41;100507.56;;;19.78;91.81
47104;BME280;32853;52.164;5.400;2023-04-22T11:53:16;100509.56;;;19.65;98.07
47104;BME280;32853;52.164;5.400;2023-04-22T11:55:44;100492.69;;;19.55;100.00
47104;BME280;32853;52.164;5.400;2023-04-22T11:58:16;100537.06;;;19.64;100.00
47104;BME280;32853;52.164;5.400;2023-04-22T12:00:53;100513.97;;;19.32;100.00
47104;BME280;32853;52.164;5.400;2023-04-22T12:03:22;100418.72;;;18.65;100.00
47104;BME280;32853;52.164;5.400;2023-04-22T12:06:02;100524.34;;;19.24;100.00
47104;BME280;32853;52.164;5.400;2023-04-22T12:08:35;100537.03;;;19.09;100.00
47104;BME280;32853;52.164;5.400;2023-04-22T12:11:07;100508.66;;;18.78;100.00
47104;BME280;32853;52.164;5.400;2023-04-22T12:13:42;100535.72;;;18.93;100.00
47104;BME280;32853;52.164;5.400;2023-04-22T12:16:16;100516.81;;;18.64;100.00
47104;BME280;32853;52.164;5.400;2023-04-22T12:18:55;100528.38;;;18.40;100.00
47104;BME280;32853;52.164;5.400;2023-04-22T12:21:28;100523.53;;;18.34;100.00
47104;BME280;32853;52.164;5.400;2023-04-22T12:23:57;100527.41;;;18.41;100.00
47104;BME280;32853;52.164;5.400;2023-04-22T12:26:30;100528.47;;;18.50;100.00
47104;BME280;32853;52.164;5.400;2023-04-22T12:28:57;100532.06;;;18.38;100.00
47104;BME280;32853;52.164;5.400;2023-04-22T12:31:22;100486.88;;;17.94;100.00
47104;BME280;32853;52.164;5.400;2023-04-22T12:33:48;100533.84;;;18.26;100.00
47104;BME280;32853;52.164;5.400;2023-04-22T12:36:14;100528.56;;;18.26;100.00
47104;BME280;32853;52.164;5.400;2023-04-22T12:38:39;100518.59;;;18.29;100.00
47104;BME280;32853;52.164;5.400;2023-04-22T12:41:06;100540.63;;;18.30;100.00
47104;BME280;32853;52.164;5.400;2023-04-22T12:43:32;100549.47;;;18.18;100.00
47104;BME280;32853;52.164;5.400;2023-04-22T12:46:01;100510.78;;;17.82;100.00
47104;BME280;32853;52.164;5.400;2023-04-22T12:48:26;100404.00;;;17.12;100.00
47104;BME280;32853;52.164;5.400;2023-04-22T12:50:56;100527.88;;;17.89;100.00
47104;BME280;32853;52.164;5.400;2023-04-22T12:53:22;100406.88;;;17.09;100.00
47104;BME280;32853;52.164;5.400;2023-04-22T12:55:47;100538.78;;;17.84;100.00